sensor_id;sensor_type;location;lat;lon;timestamp;P1;durP1;ratioP1;P2;durP2;ratioP2
57443;SDS011;43289;52.962;6.196;2024-02-23T00:02:14;8.32;;;1.30;;
57443;SDS011;43289;52.962;6.196;2024-02-23T00:04:40;2.92;;;1.00;;
57443;SDS011;43289;52.962;6.196;2024-02-23T00:07:06;4.72;;;1.00;;
57443;SDS011;43289;52.962;6.196;2024-02-23T00:09:33;4.60;;;1.08;;
57443;SDS011;43289;52.962;6.196;2024-02-23T00:11:59;2.42;;;0.60;;
57443;SDS011;43289;52.962;6.196;2024-02-23T00:14:25;3.97;;;1.20;;
57443;SDS011;43289;52.962;6.196;2024-02-23T00:16:51;1.27;;;0.70;;
57443;SDS011;43289;52.962;6.196;2024-02-23T00:19:17;2.72;;;1.08;;
57443;SDS011;43289;52.962;6.196;2024-02-23T00:21:44;1.30;;;0.43;;
57443;SDS011;43289;52.962;6.196;2024-02-23T00:24:15;2.38;;;1.00;;
57443;SDS011;43289;52.962;6.196;2024-02-23T00:26:42;4.57;;;1.25;;
57443;SDS011;43289;52.962;6.196;2024-02-23T00:29:08;2.33;;;1.00;;
57443;SDS011;43289;52.962;6.196;2024-02-23T00:31:34;3.55;;;1.20;;
57443;SDS011;43289;52.962;6.196;2024-02-23T00:34:01;2.35;;;1.10;;
57443;SDS011;43289;52.962;6.196;2024-02-23T00:36:27;3.30;;;1.30;;
57443;SDS011;43289;52.962;6.196;2024-02-23T00:38:53;3.38;;;1.35;;
57443;SDS011;43289;52.962;6.196;2024-02-23T00:41:19;5.15;;;1.45;;
57443;SDS011;43289;52.962;6.196;2024-02-23T00:43:45;5.10;;;1.65;;
57443;SDS011;43289;52.962;6.196;2024-02-23T00:46:12;2.30;;;1.20;;
57443;SDS011;43289;52.962;6.196;2024-02-23T00:48:39;0.77;;;0.75;;
57443;SDS011;43289;52.962;6.196;2024-02-23T00:51:05;3.30;;;1.23;;
57443;SDS011;43289;52.962;6.196;2024-02-23T00:53:32;4.80;;;1.13;;
57443;SDS011;43289;52.962;6.196;2024-02-23T00:55:58;3.65;;;1.08;;
57443;SDS011;43289;52.962;6.196;2024-02-23T00:58:25;4.57;;;2.30;;
57443;SDS011;43289;52.962;6.196;2024-02-23T01:00:51;4.13;;;1.00;;
57443;SDS011;43289;52.962;6.196;2024-02-23T01:03:17;2.55;;;0.80;;
57443;SDS011;43289;52.962;6.196;2024-02-23T01:05:43;3.47;;;1.17;;
57443;SDS011;43289;52.962;6.196;2024-02-23T01:08:09;6.30;;;2.10;;
57443;SDS011;43289;52.962;6.196;2024-02-23T01:10:35;6.47;;;1.17;;
57443;SDS011;43289;52.962;6.196;2024-02-23T01:13:02;9.90;;;2.10;;
57443;SDS011;43289;52.962;6.196;2024-02-23T01:15:28;10.05;;;2.85;;
57443;SDS011;43289;52.962;6.196;2024-02-23T01:17:54;7.95;;;1.83;;
57443;SDS011;43289;52.962;6.196;2024-02-23T01:20:21;6.40;;;1.90;;
57443;SDS011;43289;52.962;6.196;2024-02-23T01:22:47;5.63;;;2.03;;
57443;SDS011;43289;52.962;6.196;2024-02-23T01:25:13;8.18;;;1.90;;
57443;SDS011;43289;52.962;6.196;2024-02-23T01:27:41;6.25;;;2.17;;
57443;SDS011;43289;52.962;6.196;2024-02-23T01:30:07;10.82;;;3.40;;
57443;SDS011;43289;52.962;6.196;2024-02-23T01:32:33;12.60;;;2.20;;
57443;SDS011;43289;52.962;6.196;2024-02-23T01:35:00;6.07;;;2.50;;
57443;SDS011;43289;52.962;6.196;2024-02-23T01:37:26;9.57;;;2.75;;
57443;SDS011;43289;52.962;6.196;2024-02-23T01:39:52;12.85;;;3.10;;
57443;SDS011;43289;52.962;6.196;2024-02-23T01:42:18;10.70;;;2.60;;
57443;SDS011;43289;52.962;6.196;2024-02-23T01:44:44;6.25;;;2.35;;
57443;SDS011;43289;52.962;6.196;2024-02-23T01:47:10;12.43;;;3.72;;
57443;SDS011;43289;52.962;6.196;2024-02-23T01:49:37;8.02;;;2.83;;
57443;SDS011;43289;52.962;6.196;2024-02-23T01:52:03;16.80;;;3.40;;
57443;SDS011;43289;52.962;6.196;2024-02-23T01:54:29;11.63;;;3.50;;
57443;SDS011;43289;52.962;6.196;2024-02-23T01:56:56;6.68;;;2.28;;
57443;SDS011;43289;52.962;6.196;2024-02-23T01:59:23;16.52;;;4.00;;
57443;SDS011;43289;52.962;6.196;2024-02-23T02:01:49;7.57;;;2.22;;
57443;SDS011;43289;52.962;6.196;2024-02-23T02:07:38;6.85;;;2.03;;
57443;SDS011;43289;52.962;6.196;2024-02-23T02:10:06;8.52;;;2.40;;
57443;SDS011;43289;52.962;6.196;2024-02-23T02:12:34;8.88;;;2.03;;
57443;SDS011;43289;52.962;6.196;2024-02-23T02:15:00;8.85;;;2.80;;
57443;SDS011;43289;52.962;6.196;2024-02-23T02:17:27;8.38;;;2.33;;
57443;SDS011;43289;52.962;6.196;2024-02-23T02:19:53;7.53;;;2.60;;
57443;SDS011;43289;52.962;6.196;2024-02-23T02:22:19;8.27;;;2.42;;
57443;SDS011;43289;52.962;6.196;2024-02-23T02:24:45;11.18;;;2.80;;
57443;SDS011;43289;52.962;6.196;2024-02-23T02:27:13;13.70;;;2.10;;
57443;SDS011;43289;52.962;6.196;2024-02-23T02:29:39;9.63;;;2.35;;
57443;SDS011;43289;52.962;6.196;2024-02-23T02:32:05;6.53;;;1.90;;
57443;SDS011;43289;52.962;6.196;2024-02-23T02:34:31;9.32;;;2.42;;
57443;SDS011;43289;52.962;6.196;2024-02-23T02:36:57;6.18;;;1.25;;
57443;SDS011;43289;52.962;6.196;2024-02-23T02:39:23;7.88;;;2.63;;
57443;SDS011;43289;52.962;6.196;2024-02-23T02:41:49;11.13;;;2.53;;
57443;SDS011;43289;52.962;6.196;2024-02-23T02:44:15;7.45;;;1.75;;
57443;SDS011;43289;52.962;6.196;2024-02-23T02:46:42;7.50;;;1.65;;
57443;SDS011;43289;52.962;6.196;2024-02-23T02:49:08;5.22;;;1.80;;
57443;SDS011;43289;52.962;6.196;2024-02-23T02:51:34;8.80;;;1.67;;
57443;SDS011;43289;52.962;6.196;2024-02-23T02:54:00;11.32;;;2.38;;
57443;SDS011;43289;52.962;6.196;2024-02-23T02:56:26;12.40;;;2.08;;
57443;SDS011;43289;52.962;6.196;2024-02-23T02:58:52;10.18;;;2.30;;
57443;SDS011;43289;52.962;6.196;2024-02-23T03:01:18;8.80;;;2.38;;
57443;SDS011;43289;52.962;6.196;2024-02-23T03:03:44;4.78;;;1.33;;
57443;SDS011;43289;52.962;6.196;2024-02-23T03:06:10;6.47;;;2.00;;
57443;SDS011;43289;52.962;6.196;2024-02-23T03:08:36;6.72;;;2.28;;
57443;SDS011;43289;52.962;6.196;2024-02-23T03:11:02;6.13;;;1.80;;
57443;SDS011;43289;52.962;6.196;2024-02-23T03:13:28;7.43;;;2.25;;
57443;SDS011;43289;52.962;6.196;2024-02-23T03:15:56;6.57;;;1.98;;
57443;SDS011;43289;52.962;6.196;2024-02-23T03:18:22;12.75;;;2.70;;
57443;SDS011;43289;52.962;6.196;2024-02-23T03:20:48;5.50;;;1.77;;
57443;SDS011;43289;52.962;6.196;2024-02-23T03:23:14;3.55;;;1.77;;
57443;SDS011;43289;52.962;6.196;2024-02-23T03:25:40;7.45;;;1.70;;
57443;SDS011;43289;52.962;6.196;2024-02-23T03:28:06;15.45;;;2.05;;
57443;SDS011;43289;52.962;6.196;2024-02-23T03:30:32;7.00;;;1.65;;
57443;SDS011;43289;52.962;6.196;2024-02-23T03:32:58;13.93;;;2.10;;
57443;SDS011;43289;52.962;6.196;2024-02-23T03:35:24;7.30;;;2.42;;
57443;SDS011;43289;52.962;6.196;2024-02-23T03:37:50;6.38;;;1.70;;
57443;SDS011;43289;52.962;6.196;2024-02-23T03:40:16;7.22;;;2.42;;
57443;SDS011;43289;52.962;6.196;2024-02-23T03:42:45;8.73;;;2.55;;
57443;SDS011;43289;52.962;6.196;2024-02-23T03:45:11;5.63;;;1.83;;
57443;SDS011;43289;52.962;6.196;2024-02-23T03:47:38;5.28;;;1.85;;
57443;SDS011;43289;52.962;6.196;2024-02-23T03:50:05;9.90;;;2.33;;
57443;SDS011;43289;52.962;6.196;2024-02-23T03:52:32;7.32;;;2.17;;
57443;SDS011;43289;52.962;6.196;2024-02-23T03:54:58;7.38;;;1.60;;
57443;SDS011;43289;52.962;6.196;2024-02-23T03:57:24;4.35;;;1.88;;
57443;SDS011;43289;52.962;6.196;2024-02-23T03:59:54;10.20;;;2.20;;
57443;SDS011;43289;52.962;6.196;2024-02-23T04:02:20;8.32;;;1.45;;
57443;SDS011;43289;52.962;6.196;2024-02-23T04:04:47;7.07;;;1.73;;
57443;SDS011;43289;52.962;6.196;2024-02-23T04:07:14;5.80;;;1.60;;
57443;SDS011;43289;52.962;6.196;2024-02-23T04:09:40;6.85;;;2.05;;
57443;SDS011;43289;52.962;6.196;2024-02-23T04:14:35;10.85;;;2.13;;
57443;SDS011;43289;52.962;6.196;2024-02-23T04:17:02;5.75;;;1.50;;
57443;SDS011;43289;52.962;6.196;2024-02-23T04:19:28;7.28;;;1.70;;
57443;SDS011;43289;52.962;6.196;2024-02-23T04:21:54;10.40;;;2.35;;
57443;SDS011;43289;52.962;6.196;2024-02-23T04:24:20;9.55;;;3.08;;
57443;SDS011;43289;52.962;6.196;2024-02-23T04:26:46;10.70;;;2.47;;
57443;SDS011;43289;52.962;6.196;2024-02-23T04:29:12;9.30;;;2.63;;
57443;SDS011;43289;52.962;6.196;2024-02-23T04:31:38;8.43;;;1.92;;
57443;SDS011;43289;52.962;6.196;2024-02-23T04:34:04;7.45;;;1.90;;
57443;SDS011;43289;52.962;6.196;2024-02-23T04:36:30;11.38;;;3.03;;
57443;SDS011;43289;52.962;6.196;2024-02-23T04:38:56;10.18;;;1.90;;
57443;SDS011;43289;52.962;6.196;2024-02-23T04:41:22;6.97;;;1.92;;
57443;SDS011;43289;52.962;6.196;2024-02-23T04:43:49;12.63;;;2.65;;
57443;SDS011;43289;52.962;6.196;2024-02-23T04:46:15;10.05;;;2.10;;
57443;SDS011;43289;52.962;6.196;2024-02-23T04:48:41;5.55;;;1.52;;
57443;SDS011;43289;52.962;6.196;2024-02-23T04:51:08;9.20;;;2.10;;
57443;SDS011;43289;52.962;6.196;2024-02-23T04:53:38;6.85;;;2.28;;
57443;SDS011;43289;52.962;6.196;2024-02-23T04:56:04;10.02;;;1.85;;
57443;SDS011;43289;52.962;6.196;2024-02-23T04:58:30;9.00;;;2.30;;
57443;SDS011;43289;52.962;6.196;2024-02-23T05:00:56;6.47;;;1.52;;
57443;SDS011;43289;52.962;6.196;2024-02-23T05:03:23;6.00;;;2.05;;
57443;SDS011;43289;52.962;6.196;2024-02-23T05:05:49;9.25;;;2.13;;
57443;SDS011;43289;52.962;6.196;2024-02-23T05:08:19;6.25;;;1.65;;
57443;SDS011;43289;52.962;6.196;2024-02-23T05:10:46;6.05;;;2.05;;
57443;SDS011;43289;52.962;6.196;2024-02-23T05:13:12;4.68;;;1.70;;
57443;SDS011;43289;52.962;6.196;2024-02-23T05:15:38;3.63;;;1.60;;
57443;SDS011;43289;52.962;6.196;2024-02-23T05:18:05;8.57;;;2.63;;
57443;SDS011;43289;52.962;6.196;2024-02-23T05:20:31;12.38;;;2.53;;
57443;SDS011;43289;52.962;6.196;2024-02-23T05:22:57;10.00;;;2.00;;
57443;SDS011;43289;52.962;6.196;2024-02-23T05:25:23;5.53;;;1.92;;
57443;SDS011;43289;52.962;6.196;2024-02-23T05:27:51;6.60;;;3.40;;
57443;SDS011;43289;52.962;6.196;2024-02-23T05:30:17;8.88;;;2.90;;
57443;SDS011;43289;52.962;6.196;2024-02-23T05:32:43;7.90;;;2.00;;
57443;SDS011;43289;52.962;6.196;2024-02-23T05:35:09;12.65;;;3.15;;
57443;SDS011;43289;52.962;6.196;2024-02-23T05:37:35;9.57;;;3.72;;
57443;SDS011;43289;52.962;6.196;2024-02-23T05:40:03;9.93;;;3.92;;
57443;SDS011;43289;52.962;6.196;2024-02-23T05:42:33;10.88;;;4.20;;
57443;SDS011;43289;52.962;6.196;2024-02-23T05:44:59;11.35;;;5.03;;
57443;SDS011;43289;52.962;6.196;2024-02-23T05:47:25;13.00;;;4.20;;
57443;SDS011;43289;52.962;6.196;2024-02-23T05:49:51;12.77;;;6.10;;
57443;SDS011;43289;52.962;6.196;2024-02-23T05:52:17;11.82;;;3.83;;
57443;SDS011;43289;52.962;6.196;2024-02-23T05:54:43;10.75;;;5.05;;
57443;SDS011;43289;52.962;6.196;2024-02-23T05:57:09;10.15;;;3.80;;
57443;SDS011;43289;52.962;6.196;2024-02-23T05:59:35;14.27;;;5.57;;
57443;SDS011;43289;52.962;6.196;2024-02-23T06:02:01;9.35;;;4.07;;
57443;SDS011;43289;52.962;6.196;2024-02-23T06:04:27;10.02;;;4.97;;
57443;SDS011;43289;52.962;6.196;2024-02-23T06:06:53;15.30;;;4.57;;
57443;SDS011;43289;52.962;6.196;2024-02-23T06:09:20;10.35;;;3.90;;
57443;SDS011;43289;52.962;6.196;2024-02-23T06:11:46;11.98;;;4.97;;
57443;SDS011;43289;52.962;6.196;2024-02-23T06:14:12;11.90;;;5.38;;
57443;SDS011;43289;52.962;6.196;2024-02-23T06:16:39;11.95;;;5.10;;
57443;SDS011;43289;52.962;6.196;2024-02-23T06:19:05;9.80;;;4.00;;
57443;SDS011;43289;52.962;6.196;2024-02-23T06:21:31;11.75;;;4.88;;
57443;SDS011;43289;52.962;6.196;2024-02-23T06:23:57;11.93;;;4.72;;
57443;SDS011;43289;52.962;6.196;2024-02-23T06:26:23;7.00;;;4.05;;
57443;SDS011;43289;52.962;6.196;2024-02-23T06:28:49;10.98;;;5.78;;
57443;SDS011;43289;52.962;6.196;2024-02-23T06:31:15;12.13;;;6.35;;
57443;SDS011;43289;52.962;6.196;2024-02-23T06:33:42;13.32;;;5.10;;
57443;SDS011;43289;52.962;6.196;2024-02-23T06:36:08;14.23;;;5.20;;
57443;SDS011;43289;52.962;6.196;2024-02-23T06:38:34;13.88;;;5.85;;
57443;SDS011;43289;52.962;6.196;2024-02-23T06:41:00;13.73;;;5.60;;
57443;SDS011;43289;52.962;6.196;2024-02-23T06:43:27;14.05;;;4.70;;
57443;SDS011;43289;52.962;6.196;2024-02-23T06:45:53;15.75;;;6.50;;
57443;SDS011;43289;52.962;6.196;2024-02-23T06:48:19;13.23;;;6.30;;
57443;SDS011;43289;52.962;6.196;2024-02-23T06:50:45;13.50;;;6.45;;
57443;SDS011;43289;52.962;6.196;2024-02-23T06:53:11;13.68;;;6.28;;
57443;SDS011;43289;52.962;6.196;2024-02-23T06:55:37;13.30;;;7.20;;
57443;SDS011;43289;52.962;6.196;2024-02-23T06:58:03;10.75;;;6.22;;
57443;SDS011;43289;52.962;6.196;2024-02-23T07:00:32;11.52;;;6.15;;
57443;SDS011;43289;52.962;6.196;2024-02-23T07:02:58;9.35;;;5.25;;
57443;SDS011;43289;52.962;6.196;2024-02-23T07:05:26;15.75;;;6.50;;
57443;SDS011;43289;52.962;6.196;2024-02-23T07:07:52;12.82;;;5.38;;
57443;SDS011;43289;52.962;6.196;2024-02-23T07:10:18;12.75;;;5.30;;
57443;SDS011;43289;52.962;6.196;2024-02-23T07:12:45;9.18;;;5.47;;
57443;SDS011;43289;52.962;6.196;2024-02-23T07:15:11;11.10;;;4.10;;
57443;SDS011;43289;52.962;6.196;2024-02-23T07:17:37;12.38;;;4.95;;
57443;SDS011;43289;52.962;6.196;2024-02-23T07:20:03;9.10;;;5.50;;
57443;SDS011;43289;52.962;6.196;2024-02-23T07:22:33;11.00;;;3.92;;
57443;SDS011;43289;52.962;6.196;2024-02-23T07:25:01;8.55;;;4.30;;
57443;SDS011;43289;52.962;6.196;2024-02-23T07:27:29;14.98;;;5.35;;
57443;SDS011;43289;52.962;6.196;2024-02-23T07:29:55;9.57;;;4.30;;
57443;SDS011;43289;52.962;6.196;2024-02-23T07:32:21;13.05;;;4.97;;
57443;SDS011;43289;52.962;6.196;2024-02-23T07:34:47;12.85;;;4.85;;
57443;SDS011;43289;52.962;6.196;2024-02-23T07:37:14;11.10;;;4.43;;
57443;SDS011;43289;52.962;6.196;2024-02-23T07:39:40;8.63;;;4.60;;
57443;SDS011;43289;52.962;6.196;2024-02-23T07:42:06;8.85;;;5.13;;
57443;SDS011;43289;52.962;6.196;2024-02-23T07:44:35;9.30;;;4.82;;
57443;SDS011;43289;52.962;6.196;2024-02-23T07:47:02;8.50;;;4.80;;
57443;SDS011;43289;52.962;6.196;2024-02-23T07:49:28;11.00;;;4.75;;
57443;SDS011;43289;52.962;6.196;2024-02-23T07:51:54;7.00;;;4.30;;
57443;SDS011;43289;52.962;6.196;2024-02-23T07:54:21;11.40;;;6.00;;
57443;SDS011;43289;52.962;6.196;2024-02-23T07:56:47;8.30;;;4.03;;
57443;SDS011;43289;52.962;6.196;2024-02-23T07:59:13;7.28;;;4.03;;
57443;SDS011;43289;52.962;6.196;2024-02-23T08:01:39;8.70;;;4.38;;
57443;SDS011;43289;52.962;6.196;2024-02-23T08:04:08;12.43;;;3.92;;
57443;SDS011;43289;52.962;6.196;2024-02-23T08:06:34;9.13;;;4.03;;
57443;SDS011;43289;52.962;6.196;2024-02-23T08:09:00;8.35;;;3.85;;
57443;SDS011;43289;52.962;6.196;2024-02-23T08:11:26;8.90;;;4.03;;
57443;SDS011;43289;52.962;6.196;2024-02-23T08:13:52;7.00;;;3.40;;
57443;SDS011;43289;52.962;6.196;2024-02-23T08:16:18;9.27;;;3.72;;
57443;SDS011;43289;52.962;6.196;2024-02-23T08:18:44;10.30;;;3.20;;
57443;SDS011;43289;52.962;6.196;2024-02-23T08:21:10;9.32;;;3.75;;
57443;SDS011;43289;52.962;6.196;2024-02-23T08:23:36;7.55;;;3.95;;
57443;SDS011;43289;52.962;6.196;2024-02-23T08:26:02;10.70;;;3.47;;
57443;SDS011;43289;52.962;6.196;2024-02-23T08:28:28;5.25;;;3.28;;
57443;SDS011;43289;52.962;6.196;2024-02-23T08:30:54;8.13;;;3.00;;
57443;SDS011;43289;52.962;6.196;2024-02-23T08:33:20;7.32;;;2.47;;
57443;SDS011;43289;52.962;6.196;2024-02-23T08:35:47;6.45;;;2.60;;
57443;SDS011;43289;52.962;6.196;2024-02-23T08:38:13;5.70;;;2.63;;
57443;SDS011;43289;52.962;6.196;2024-02-23T08:40:39;5.85;;;2.33;;
57443;SDS011;43289;52.962;6.196;2024-02-23T08:43:07;6.85;;;2.20;;
57443;SDS011;43289;52.962;6.196;2024-02-23T08:45:33;11.10;;;2.50;;
57443;SDS011;43289;52.962;6.196;2024-02-23T08:47:59;7.43;;;2.95;;
57443;SDS011;43289;52.962;6.196;2024-02-23T08:50:25;8.75;;;2.70;;
57443;SDS011;43289;52.962;6.196;2024-02-23T08:52:51;7.85;;;2.10;;
57443;SDS011;43289;52.962;6.196;2024-02-23T08:55:17;5.82;;;2.60;;
57443;SDS011;43289;52.962;6.196;2024-02-23T08:57:43;5.55;;;2.85;;
57443;SDS011;43289;52.962;6.196;2024-02-23T09:00:10;6.43;;;2.75;;
57443;SDS011;43289;52.962;6.196;2024-02-23T09:02:36;6.43;;;2.25;;
57443;SDS011;43289;52.962;6.196;2024-02-23T09:05:03;6.97;;;2.22;;
57443;SDS011;43289;52.962;6.196;2024-02-23T09:07:29;10.18;;;2.42;;
57443;SDS011;43289;52.962;6.196;2024-02-23T09:09:55;5.65;;;2.30;;
57443;SDS011;43289;52.962;6.196;2024-02-23T09:12:22;6.32;;;2.00;;
57443;SDS011;43289;52.962;6.196;2024-02-23T09:14:48;7.15;;;2.40;;
57443;SDS011;43289;52.962;6.196;2024-02-23T09:17:14;5.97;;;2.17;;
57443;SDS011;43289;52.962;6.196;2024-02-23T09:19:40;8.18;;;2.35;;
57443;SDS011;43289;52.962;6.196;2024-02-23T09:22:06;7.88;;;1.88;;
57443;SDS011;43289;52.962;6.196;2024-02-23T09:24:32;5.22;;;1.80;;
57443;SDS011;43289;52.962;6.196;2024-02-23T09:26:58;4.05;;;2.00;;
57443;SDS011;43289;52.962;6.196;2024-02-23T09:29:24;6.38;;;2.15;;
57443;SDS011;43289;52.962;6.196;2024-02-23T09:31:50;6.68;;;2.17;;
57443;SDS011;43289;52.962;6.196;2024-02-23T09:34:17;7.13;;;2.38;;
57443;SDS011;43289;52.962;6.196;2024-02-23T09:36:44;6.90;;;2.20;;
57443;SDS011;43289;52.962;6.196;2024-02-23T09:39:10;7.15;;;1.80;;
57443;SDS011;43289;52.962;6.196;2024-02-23T09:41:36;9.73;;;1.80;;
57443;SDS011;43289;52.962;6.196;2024-02-23T09:44:03;6.00;;;2.17;;
57443;SDS011;43289;52.962;6.196;2024-02-23T09:46:29;3.75;;;1.55;;
57443;SDS011;43289;52.962;6.196;2024-02-23T09:48:55;6.68;;;1.85;;
57443;SDS011;43289;52.962;6.196;2024-02-23T09:51:22;4.93;;;2.40;;
57443;SDS011;43289;52.962;6.196;2024-02-23T09:53:49;7.43;;;1.92;;
57443;SDS011;43289;52.962;6.196;2024-02-23T09:56:19;6.40;;;2.25;;
57443;SDS011;43289;52.962;6.196;2024-02-23T09:58:46;7.35;;;2.75;;
57443;SDS011;43289;52.962;6.196;2024-02-23T10:01:15;10.52;;;2.50;;
57443;SDS011;43289;52.962;6.196;2024-02-23T10:03:43;8.30;;;1.77;;
57443;SDS011;43289;52.962;6.196;2024-02-23T10:06:10;4.95;;;2.13;;
57443;SDS011;43289;52.962;6.196;2024-02-23T10:08:36;7.10;;;2.25;;
57443;SDS011;43289;52.962;6.196;2024-02-23T10:11:02;9.23;;;2.83;;
57443;SDS011;43289;52.962;6.196;2024-02-23T10:13:29;5.43;;;1.83;;
57443;SDS011;43289;52.962;6.196;2024-02-23T10:15:55;8.20;;;1.88;;
57443;SDS011;43289;52.962;6.196;2024-02-23T10:18:21;10.65;;;1.90;;
57443;SDS011;43289;52.962;6.196;2024-02-23T10:20:48;8.15;;;2.10;;
57443;SDS011;43289;52.962;6.196;2024-02-23T10:23:15;3.10;;;1.50;;
57443;SDS011;43289;52.962;6.196;2024-02-23T10:25:41;6.18;;;1.70;;
57443;SDS011;43289;52.962;6.196;2024-02-23T10:28:07;3.28;;;1.20;;
57443;SDS011;43289;52.962;6.196;2024-02-23T10:30:36;5.60;;;1.83;;
57443;SDS011;43289;52.962;6.196;2024-02-23T10:33:03;7.78;;;1.92;;
57443;SDS011;43289;52.962;6.196;2024-02-23T10:35:30;6.25;;;1.35;;
57443;SDS011;43289;52.962;6.196;2024-02-23T10:38:00;4.15;;;1.80;;
57443;SDS011;43289;52.962;6.196;2024-02-23T10:40:27;6.65;;;2.10;;
57443;SDS011;43289;52.962;6.196;2024-02-23T10:42:56;8.15;;;1.58;;
57443;SDS011;43289;52.962;6.196;2024-02-23T10:45:27;6.03;;;1.40;;
57443;SDS011;43289;52.962;6.196;2024-02-23T10:47:54;2.53;;;1.40;;
57443;SDS011;43289;52.962;6.196;2024-02-23T10:50:21;5.45;;;1.45;;
57443;SDS011;43289;52.962;6.196;2024-02-23T10:52:47;6.65;;;1.42;;
57443;SDS011;43289;52.962;6.196;2024-02-23T10:55:14;4.53;;;1.70;;
57443;SDS011;43289;52.962;6.196;2024-02-23T10:57:40;5.07;;;1.88;;
57443;SDS011;43289;52.962;6.196;2024-02-23T11:00:07;7.60;;;1.70;;
57443;SDS011;43289;52.962;6.196;2024-02-23T11:02:38;5.05;;;1.77;;
57443;SDS011;43289;52.962;6.196;2024-02-23T11:05:06;5.90;;;1.70;;
57443;SDS011;43289;52.962;6.196;2024-02-23T11:07:37;4.43;;;1.60;;
57443;SDS011;43289;52.962;6.196;2024-02-23T11:10:04;7.35;;;2.60;;
57443;SDS011;43289;52.962;6.196;2024-02-23T11:12:30;5.93;;;1.70;;
57443;SDS011;43289;52.962;6.196;2024-02-23T11:14:57;5.93;;;1.50;;
57443;SDS011;43289;52.962;6.196;2024-02-23T11:17:26;3.40;;;1.77;;
57443;SDS011;43289;52.962;6.196;2024-02-23T11:19:54;4.22;;;1.75;;
57443;SDS011;43289;52.962;6.196;2024-02-23T11:24:52;9.25;;;2.45;;
57443;SDS011;43289;52.962;6.196;2024-02-23T11:27:22;5.05;;;1.58;;
57443;SDS011;43289;52.962;6.196;2024-02-23T11:29:58;4.57;;;1.50;;
57443;SDS011;43289;52.962;6.196;2024-02-23T11:32:34;6.50;;;1.98;;
57443;SDS011;43289;52.962;6.196;2024-02-23T11:35:01;3.35;;;1.67;;
57443;SDS011;43289;52.962;6.196;2024-02-23T11:37:30;6.85;;;1.75;;
57443;SDS011;43289;52.962;6.196;2024-02-23T11:39:57;3.95;;;1.65;;
57443;SDS011;43289;52.962;6.196;2024-02-23T11:42:24;5.95;;;2.38;;
57443;SDS011;43289;52.962;6.196;2024-02-23T11:44:52;3.97;;;2.42;;
57443;SDS011;43289;52.962;6.196;2024-02-23T11:47:19;6.00;;;1.60;;
57443;SDS011;43289;52.962;6.196;2024-02-23T11:49:45;5.97;;;1.88;;
57443;SDS011;43289;52.962;6.196;2024-02-23T11:52:11;4.57;;;1.73;;
57443;SDS011;43289;52.962;6.196;2024-02-23T11:54:37;7.70;;;2.00;;
57443;SDS011;43289;52.962;6.196;2024-02-23T11:57:03;4.70;;;1.70;;
57443;SDS011;43289;52.962;6.196;2024-02-23T11:59:29;5.38;;;2.00;;
57443;SDS011;43289;52.962;6.196;2024-02-23T12:01:55;6.53;;;2.22;;
57443;SDS011;43289;52.962;6.196;2024-02-23T12:04:21;6.15;;;2.22;;
57443;SDS011;43289;52.962;6.196;2024-02-23T12:06:47;5.85;;;1.95;;
57443;SDS011;43289;52.962;6.196;2024-02-23T12:09:14;6.43;;;1.77;;
57443;SDS011;43289;52.962;6.196;2024-02-23T12:11:40;10.13;;;1.80;;
57443;SDS011;43289;52.962;6.196;2024-02-23T12:14:06;3.63;;;1.73;;
57443;SDS011;43289;52.962;6.196;2024-02-23T12:16:34;3.92;;;1.60;;
57443;SDS011;43289;52.962;6.196;2024-02-23T12:19:03;5.00;;;2.13;;
57443;SDS011;43289;52.962;6.196;2024-02-23T12:21:29;5.72;;;2.00;;
57443;SDS011;43289;52.962;6.196;2024-02-23T12:23:55;5.15;;;1.80;;
57443;SDS011;43289;52.962;6.196;2024-02-23T12:26:22;3.53;;;1.70;;
57443;SDS011;43289;52.962;6.196;2024-02-23T12:28:48;7.82;;;1.92;;
57443;SDS011;43289;52.962;6.196;2024-02-23T12:31:14;4.35;;;1.88;;
57443;SDS011;43289;52.962;6.196;2024-02-23T12:33:41;3.33;;;1.55;;
57443;SDS011;43289;52.962;6.196;2024-02-23T12:36:07;4.97;;;2.50;;
57443;SDS011;43289;52.962;6.196;2024-02-23T12:38:34;7.65;;;1.80;;
57443;SDS011;43289;52.962;6.196;2024-02-23T12:41:01;5.32;;;2.13;;
57443;SDS011;43289;52.962;6.196;2024-02-23T12:43:28;5.32;;;2.15;;
57443;SDS011;43289;52.962;6.196;2024-02-23T12:45:54;8.48;;;2.53;;
57443;SDS011;43289;52.962;6.196;2024-02-23T12:48:21;5.20;;;2.10;;
57443;SDS011;43289;52.962;6.196;2024-02-23T12:50:48;4.55;;;2.38;;
57443;SDS011;43289;52.962;6.196;2024-02-23T12:53:30;3.85;;;1.70;;
57443;SDS011;43289;52.962;6.196;2024-02-23T12:56:03;3.80;;;1.85;;
57443;SDS011;43289;52.962;6.196;2024-02-23T12:58:29;6.57;;;1.90;;
57443;SDS011;43289;52.962;6.196;2024-02-23T13:00:55;6.90;;;2.30;;
57443;SDS011;43289;52.962;6.196;2024-02-23T13:03:23;6.50;;;2.20;;
57443;SDS011;43289;52.962;6.196;2024-02-23T13:05:49;5.35;;;2.85;;
57443;SDS011;43289;52.962;6.196;2024-02-23T13:08:15;4.82;;;2.00;;
57443;SDS011;43289;52.962;6.196;2024-02-23T13:10:42;6.28;;;1.95;;
57443;SDS011;43289;52.962;6.196;2024-02-23T13:13:09;6.93;;;2.65;;
57443;SDS011;43289;52.962;6.196;2024-02-23T13:15:35;6.80;;;2.72;;
57443;SDS011;43289;52.962;6.196;2024-02-23T13:18:03;2.60;;;1.30;;
57443;SDS011;43289;52.962;6.196;2024-02-23T13:20:29;6.38;;;3.10;;
57443;SDS011;43289;52.962;6.196;2024-02-23T13:22:55;5.70;;;2.45;;
57443;SDS011;43289;52.962;6.196;2024-02-23T13:25:21;9.43;;;2.20;;
57443;SDS011;43289;52.962;6.196;2024-02-23T13:27:47;4.55;;;1.98;;
57443;SDS011;43289;52.962;6.196;2024-02-23T13:30:13;3.58;;;2.03;;
57443;SDS011;43289;52.962;6.196;2024-02-23T13:32:39;6.55;;;2.38;;
57443;SDS011;43289;52.962;6.196;2024-02-23T13:35:05;5.05;;;2.08;;
57443;SDS011;43289;52.962;6.196;2024-02-23T13:37:32;6.57;;;2.22;;
57443;SDS011;43289;52.962;6.196;2024-02-23T13:39:58;4.93;;;1.95;;
57443;SDS011;43289;52.962;6.196;2024-02-23T13:42:24;7.35;;;3.20;;
57443;SDS011;43289;52.962;6.196;2024-02-23T13:44:50;5.00;;;2.03;;
57443;SDS011;43289;52.962;6.196;2024-02-23T13:47:16;5.03;;;1.80;;
57443;SDS011;43289;52.962;6.196;2024-02-23T13:49:42;4.75;;;2.20;;
57443;SDS011;43289;52.962;6.196;2024-02-23T13:52:10;5.70;;;2.55;;
57443;SDS011;43289;52.962;6.196;2024-02-23T13:54:36;5.22;;;2.00;;
57443;SDS011;43289;52.962;6.196;2024-02-23T13:57:02;5.22;;;2.28;;
57443;SDS011;43289;52.962;6.196;2024-02-23T13:59:28;8.05;;;3.13;;
57443;SDS011;43289;52.962;6.196;2024-02-23T14:01:54;3.95;;;2.13;;
57443;SDS011;43289;52.962;6.196;2024-02-23T14:04:30;6.85;;;2.40;;
57443;SDS011;43289;52.962;6.196;2024-02-23T14:06:56;5.38;;;2.28;;
57443;SDS011;43289;52.962;6.196;2024-02-23T14:09:22;3.00;;;1.92;;
57443;SDS011;43289;52.962;6.196;2024-02-23T14:11:48;6.22;;;1.92;;
57443;SDS011;43289;52.962;6.196;2024-02-23T14:14:15;3.25;;;2.20;;
57443;SDS011;43289;52.962;6.196;2024-02-23T14:16:41;4.03;;;2.22;;
57443;SDS011;43289;52.962;6.196;2024-02-23T14:19:07;3.22;;;2.00;;
57443;SDS011;43289;52.962;6.196;2024-02-23T14:21:33;8.98;;;2.90;;
57443;SDS011;43289;52.962;6.196;2024-02-23T14:24:02;7.25;;;2.15;;
57443;SDS011;43289;52.962;6.196;2024-02-23T14:26:28;6.50;;;2.65;;
57443;SDS011;43289;52.962;6.196;2024-02-23T14:28:54;6.95;;;2.42;;
57443;SDS011;43289;52.962;6.196;2024-02-23T14:31:20;7.07;;;2.63;;
57443;SDS011;43289;52.962;6.196;2024-02-23T14:33:46;7.25;;;2.83;;
57443;SDS011;43289;52.962;6.196;2024-02-23T14:36:15;8.38;;;2.30;;
57443;SDS011;43289;52.962;6.196;2024-02-23T14:38:41;5.00;;;2.13;;
57443;SDS011;43289;52.962;6.196;2024-02-23T14:41:08;5.30;;;2.15;;
57443;SDS011;43289;52.962;6.196;2024-02-23T14:43:35;6.97;;;2.30;;
57443;SDS011;43289;52.962;6.196;2024-02-23T14:46:01;5.03;;;2.03;;
57443;SDS011;43289;52.962;6.196;2024-02-23T14:48:27;8.20;;;1.73;;
57443;SDS011;43289;52.962;6.196;2024-02-23T14:50:53;5.68;;;2.38;;